ポートルイス の空港の天気 - METARとTAF

サー・シウサガル・ラングラーム国際空港 ( FIMP / MRU ) - モーリシャス ポートルイス
飛行場実況気象(Metar)
観測時間05/29 02:00 MUT (05/28 22:00 UTC)
風向・風速南南東 7m/s
視程10km以上
天気現象周辺でしゅう雨
全天の4割程度の雲 雲底高度 520m
気温23℃
湿度73%
気圧1018hPa
METARFIMP 282200Z 16013KT 9999 VCSH SCT017 23/18 Q1018
過去の天気等 Google飛行場航空写真 Wunderground天気予報

過去48時間のMETAR

飛行場予報(TAF)
発表時間: 5/28 21:05 MUT (5/28 17:05 UTC)
予報対象時間: 28日22時 MUT ~ 30日4時 MUT
風向・風速南 6m/s 瞬間風速 13m/s
視程10km以上
全天の4割程度の雲 雲底高度 520m
28日22時 MUT ~ 29日7時 MUT に一時的に
視程7000m
天気現象弱いしゅう雨
全天の8割程度の雲 雲底高度 490m
TAF COR FIMP 281705Z 2818/3000 17012G25KT 9999 SCT017
TEMPO 2818/2903 7000 -SHRA BKN016